createdAt,value
2022-09-01T00:00:38.767Z,550.8
2022-09-01T00:01:40.407Z,550.9
2022-09-01T00:02:42.451Z,551.1
2022-09-01T00:03:44.053Z,551.2
2022-09-01T00:04:46.096Z,551.2
2022-09-01T00:05:47.899Z,551.4
2022-09-01T00:06:49.733Z,551.2
2022-09-01T00:07:51.505Z,551.2
2022-09-01T00:08:53.035Z,551.5
2022-09-01T00:09:54.539Z,551.2
2022-09-01T00:10:56.046Z,551.4
2022-09-01T00:11:57.605Z,551.4
2022-09-01T00:12:59.232Z,551.4
2022-09-01T00:14:00.803Z,551.4
2022-09-01T00:15:02.356Z,551.3
2022-09-01T00:16:04.321Z,551.5
2022-09-01T00:17:06.074Z,551.3
2022-09-01T00:18:07.648Z,551.4
2022-09-01T00:19:13.849Z,551.1
2022-09-01T00:20:21.418Z,551
2022-09-01T00:21:22.994Z,550.9
2022-09-01T00:22:24.539Z,551
2022-09-01T00:23:26.113Z,551.2
2022-09-01T00:24:27.708Z,551.3
2022-09-01T00:25:29.307Z,551.2
2022-09-01T00:26:30.947Z,551.2
2022-09-01T00:27:33.015Z,551.4
2022-09-01T00:28:34.615Z,551.5
2022-09-01T00:29:36.201Z,551.8
2022-09-01T00:30:38.071Z,551.8
2022-09-01T00:31:39.619Z,551.9
2022-09-01T00:32:41.158Z,552.2
2022-09-01T00:33:42.772Z,552.2
2022-09-01T00:34:44.314Z,552.2
2022-09-01T00:35:45.840Z,552.5
2022-09-01T00:36:47.371Z,552.6
2022-09-01T00:37:48.959Z,552.7
2022-09-01T00:38:50.591Z,552.3
2022-09-01T00:39:52.220Z,552.6
2022-09-01T00:40:54.174Z,552.6
2022-09-01T00:41:55.785Z,552.1
2022-09-01T00:42:57.473Z,552.2
2022-09-01T00:43:59.127Z,551.9
2022-09-01T00:45:01.040Z,551.9
2022-09-01T00:46:03.943Z,551.9
2022-09-01T00:47:05.646Z,551.5
2022-09-01T00:48:07.187Z,551.3
2022-09-01T00:49:08.974Z,551.3
2022-09-01T00:50:10.504Z,551.1
2022-09-01T00:51:12.075Z,551.3
2022-09-01T00:52:13.608Z,550.8
2022-09-01T00:53:15.353Z,551
2022-09-01T00:54:17.044Z,550.5
2022-09-01T00:55:18.581Z,550.4
2022-09-01T00:56:20.203Z,550.5
2022-09-01T00:57:21.910Z,550.4
2022-09-01T00:58:24.066Z,550.3
2022-09-01T00:59:25.643Z,550.3
2022-09-01T01:00:27.298Z,549.8
2022-09-01T01:01:29.166Z,549.9
2022-09-01T01:02:31.318Z,550
2022-09-01T01:03:32.991Z,549.6
2022-09-01T01:04:34.776Z,549.6
2022-09-01T01:05:36.505Z,549.5
2022-09-01T01:06:38.136Z,549.6
2022-09-01T01:07:39.673Z,549.3
2022-09-01T01:08:41.228Z,549.2
2022-09-01T01:09:42.764Z,549.3
2022-09-01T01:10:44.459Z,549.2
2022-09-01T01:11:46.060Z,549.2
2022-09-01T01:12:47.699Z,548.9
2022-09-01T01:13:49.378Z,548.8
2022-09-01T01:14:51.487Z,548.7
2022-09-01T01:15:53.094Z,548.9
2022-09-01T01:16:54.831Z,549.2
2022-09-01T01:17:56.543Z,549.2
2022-09-01T01:18:58.320Z,549.5
2022-09-01T01:20:00.069Z,549.4
2022-09-01T01:21:01.731Z,549.9
2022-09-01T01:22:03.375Z,549.7
2022-09-01T01:23:05.023Z,549.8
2022-09-01T01:24:06.638Z,549.8
2022-09-01T01:25:08.387Z,549.9
2022-09-01T01:26:10.006Z,549.9
2022-09-01T01:27:11.576Z,549.8
2022-09-01T01:28:13.352Z,549.6
2022-09-01T01:29:14.891Z,549.2
2022-09-01T01:30:16.506Z,549
2022-09-01T01:31:21.034Z,549.1
2022-09-01T01:32:22.699Z,548.8
2022-09-01T01:33:24.754Z,549
2022-09-01T01:34:26.377Z,549.1
2022-09-01T01:35:27.914Z,548.9
2022-09-01T01:36:29.449Z,548.8
2022-09-01T01:37:31.219Z,549.1
2022-09-01T01:38:32.827Z,548.5
2022-09-01T01:39:34.434Z,549
2022-09-01T01:40:36.354Z,548.6
2022-09-01T01:41:37.925Z,549
2022-09-01T01:42:39.476Z,548.9
2022-09-01T01:43:41.041Z,549
2022-09-01T01:44:42.551Z,549.1
2022-09-01T01:45:44.377Z,548.7
2022-09-01T01:46:45.978Z,548.6
2022-09-01T01:47:47.519Z,548.7
2022-09-01T01:48:49.124Z,548.1
2022-09-01T01:49:50.740Z,548.4
2022-09-01T01:50:52.325Z,548.4
2022-09-01T01:51:54.013Z,548.3
2022-09-01T01:53:00.283Z,548.3
2022-09-01T01:54:02.131Z,548.4
2022-09-01T01:55:05.847Z,548.4
2022-09-01T01:56:07.509Z,548.4
2022-09-01T01:57:09.044Z,548.4
2022-09-01T01:58:10.617Z,548.3
2022-09-01T01:59:12.223Z,548
2022-09-01T02:00:13.854Z,548
2022-09-01T02:01:15.836Z,548
2022-09-01T02:02:17.712Z,548.1
2022-09-01T02:03:19.324Z,547.6
2022-09-01T02:04:20.923Z,547.6
2022-09-01T02:05:22.508Z,547.6
2022-09-01T02:06:24.102Z,547.7
2022-09-01T02:07:31.713Z,547.5
2022-09-01T02:08:35.336Z,547.5
2022-09-01T02:09:36.887Z,547.6
2022-09-01T02:10:38.438Z,547.4
2022-09-01T02:11:40.128Z,547.7
2022-09-01T02:12:41.695Z,547.5
2022-09-01T02:13:43.238Z,547.8
2022-09-01T02:14:44.785Z,547.9
2022-09-01T02:15:46.329Z,547.8
2022-09-01T02:16:48.666Z,547.5
2022-09-01T02:17:50.338Z,547.6
2022-09-01T02:18:51.872Z,547.8
2022-09-01T02:19:53.420Z,547.9
2022-09-01T02:20:54.969Z,547.2
2022-09-01T02:21:56.720Z,547.5
2022-09-01T02:22:58.258Z,547.6
2022-09-01T02:23:59.814Z,547.5
2022-09-01T02:25:01.417Z,547.5
2022-09-01T02:26:18.321Z,547.3
2022-09-01T02:27:20.008Z,547.3
2022-09-01T02:28:22.122Z,547.7
2022-09-01T02:29:23.664Z,547.3
2022-09-01T02:30:25.668Z,547.6
2022-09-01T02:31:27.266Z,547.5
2022-09-01T02:32:28.818Z,547.6
2022-09-01T02:33:30.392Z,547.4
2022-09-01T02:34:31.931Z,547.4
2022-09-01T02:35:33.680Z,547.7
2022-09-01T02:36:35.351Z,547.8
2022-09-01T02:37:36.894Z,547.8
2022-09-01T02:38:39.320Z,548.2
2022-09-01T02:39:40.864Z,548
2022-09-01T02:40:43.022Z,548.3
2022-09-01T02:41:44.675Z,548.3
2022-09-01T02:42:46.287Z,548.6
2022-09-01T02:43:47.823Z,548.3
2022-09-01T02:44:49.718Z,548.4
2022-09-01T02:45:54.044Z,548.6
2022-09-01T02:46:59.319Z,548.7
2022-09-01T02:48:02.530Z,548.9
2022-09-01T02:49:04.530Z,549.1
2022-09-01T02:50:06.190Z,548.9
2022-09-01T02:51:07.745Z,549.1
2022-09-01T02:52:09.485Z,549
2022-09-01T02:53:11.033Z,549.4
2022-09-01T02:54:12.573Z,549.2
2022-09-01T02:55:14.834Z,549.5
2022-09-01T02:56:16.655Z,549.4
2022-09-01T02:57:18.198Z,549.5
2022-09-01T02:58:25.019Z,549.4
2022-09-01T02:59:27.251Z,549.6
2022-09-01T03:00:28.788Z,549
2022-09-01T03:01:30.865Z,549.3
2022-09-01T03:02:32.521Z,549.2
2022-09-01T03:03:34.065Z,549.8
2022-09-01T03:04:36.181Z,549.7
2022-09-01T03:05:37.800Z,549.8
2022-09-01T03:06:39.388Z,549.9
2022-09-01T03:07:40.975Z,549.5
2022-09-01T03:08:42.512Z,549.7
2022-09-01T03:09:44.039Z,549.4
2022-09-01T03:10:45.581Z,549.5
2022-09-01T03:11:47.176Z,549.5
2022-09-01T03:12:48.728Z,549.6
2022-09-01T03:13:50.262Z,549.5
2022-09-01T03:14:51.822Z,549.6
2022-09-01T03:15:53.368Z,549.9
2022-09-01T03:16:55.451Z,549.8
2022-09-01T03:17:57.027Z,550
2022-09-01T03:18:58.607Z,549.8
2022-09-01T03:20:00.168Z,549.7
2022-09-01T03:21:01.722Z,549.6
2022-09-01T03:22:03.306Z,549.6
2022-09-01T03:23:04.850Z,549.6
2022-09-01T03:24:06.418Z,549.3
2022-09-01T03:25:08.032Z,549.5
2022-09-01T03:26:09.537Z,549.7
2022-09-01T03:27:11.131Z,549.2
2022-09-01T03:28:12.996Z,549.3
2022-09-01T03:29:14.578Z,549.5
2022-09-01T03:30:18.111Z,549.4
2022-09-01T03:31:21.860Z,549.1
2022-09-01T03:32:23.509Z,549.1
2022-09-01T03:33:25.047Z,549.2
2022-09-01T03:34:26.597Z,549
2022-09-01T03:35:28.198Z,549
2022-09-01T03:36:29.742Z,549.2
2022-09-01T03:37:31.414Z,549.4
2022-09-01T03:38:33.156Z,549.7
2022-09-01T03:39:34.694Z,549.7
2022-09-01T03:40:36.789Z,549.7
2022-09-01T03:41:38.436Z,549.6
2022-09-01T03:42:39.971Z,549.7
2022-09-01T03:43:48.951Z,549.3
2022-09-01T03:44:50.593Z,549.4
2022-09-01T03:45:52.517Z,549.4
2022-09-01T03:46:54.070Z,549.1
2022-09-01T03:47:55.654Z,549.1
2022-09-01T03:48:57.296Z,548.8
2022-09-01T03:49:58.848Z,549
2022-09-01T03:51:00.389Z,548.7
2022-09-01T03:52:01.992Z,549.1
2022-09-01T03:53:03.605Z,548.8
2022-09-01T03:54:05.159Z,548.9
2022-09-01T03:55:06.687Z,549
2022-09-01T03:56:08.216Z,549.1
2022-09-01T03:57:10.335Z,548.7
2022-09-01T03:58:15.909Z,548.7
2022-09-01T03:59:17.973Z,548.5
2022-09-01T04:00:19.558Z,548.3
2022-09-01T04:01:22.293Z,548.7
2022-09-01T04:02:26.085Z,548.7
2022-09-01T04:03:32.100Z,548.7
2022-09-01T04:04:33.621Z,548.7
2022-09-01T04:05:35.166Z,548.8
2022-09-01T04:06:36.705Z,548.9
2022-09-01T04:07:38.249Z,548.8
2022-09-01T04:08:39.829Z,548.7
2022-09-01T04:09:44.104Z,549.1
2022-09-01T04:10:54.866Z,548.8
2022-09-01T04:11:56.460Z,548.8
2022-09-01T04:12:57.967Z,548.7
2022-09-01T04:13:59.513Z,548.7
2022-09-01T04:15:01.067Z,548.2
2022-09-01T04:16:03.128Z,548.2
2022-09-01T04:17:04.697Z,548.4
2022-09-01T04:18:06.241Z,548.1
2022-09-01T04:19:07.783Z,548.2
2022-09-01T04:20:09.651Z,548.4
2022-09-01T04:21:11.184Z,548.1
2022-09-01T04:22:12.748Z,548
2022-09-01T04:23:14.322Z,548.1
2022-09-01T04:24:15.867Z,548.3
2022-09-01T04:25:17.609Z,548.5
2022-09-01T04:26:19.208Z,548.2
2022-09-01T04:27:20.787Z,548.4
2022-09-01T04:28:22.324Z,548.6
2022-09-01T04:29:23.856Z,548.7
2022-09-01T04:30:25.533Z,548.9
2022-09-01T04:31:27.503Z,548.8
2022-09-01T04:32:29.160Z,548.7
2022-09-01T04:33:30.728Z,548.4
2022-09-01T04:34:32.267Z,548.6
2022-09-01T04:35:38.483Z,548.5
2022-09-01T04:36:40.016Z,548.6
2022-09-01T04:37:41.562Z,548.6
2022-09-01T04:38:43.171Z,548.5
2022-09-01T04:39:44.715Z,548.3
2022-09-01T04:40:46.708Z,548.6
2022-09-01T04:41:50.915Z,548.2
2022-09-01T04:42:52.503Z,548
2022-09-01T04:43:54.076Z,548.1
2022-09-01T04:44:58.034Z,547.8
2022-09-01T04:46:00.062Z,548
2022-09-01T04:47:01.780Z,548.2
2022-09-01T04:48:03.315Z,548.1
2022-09-01T04:49:05.402Z,548.2
2022-09-01T04:50:06.943Z,548.2
2022-09-01T04:51:08.484Z,547.9
2022-09-01T04:52:10.040Z,548.1
2022-09-01T04:53:11.679Z,548.4
2022-09-01T04:54:13.205Z,548.4
2022-09-01T04:55:14.935Z,548.3
2022-09-01T04:56:16.619Z,548.5
2022-09-01T04:57:18.155Z,548.3
2022-09-01T04:58:19.721Z,549
2022-09-01T04:59:22.338Z,548.4
2022-09-01T05:00:24.094Z,548.6
2022-09-01T05:01:26.388Z,548.5
2022-09-01T05:02:28.308Z,548.6
2022-09-01T05:03:29.864Z,548.6
2022-09-01T05:04:31.414Z,548.5
2022-09-01T05:05:32.981Z,548.7
2022-09-01T05:06:34.526Z,548.8
2022-09-01T05:07:36.055Z,548.6
2022-09-01T05:08:37.631Z,548.6
2022-09-01T05:09:39.192Z,548.7
2022-09-01T05:10:40.757Z,548.6
2022-09-01T05:11:42.298Z,548.9
2022-09-01T05:12:43.854Z,548.9
2022-09-01T05:13:45.477Z,548.8
2022-09-01T05:14:47.101Z,549.1
2022-09-01T05:15:48.635Z,549.2
2022-09-01T05:16:50.598Z,549.2
2022-09-01T05:17:52.189Z,549.1
2022-09-01T05:18:53.754Z,549.1
2022-09-01T05:19:55.296Z,549.2
2022-09-01T05:20:56.810Z,549
2022-09-01T05:21:58.423Z,549.1
2022-09-01T05:22:59.961Z,548.9
2022-09-01T05:24:01.881Z,548.8
2022-09-01T05:25:03.531Z,548.8
2022-09-01T05:26:05.064Z,548.9
2022-09-01T05:27:06.861Z,548.6
2022-09-01T05:28:08.400Z,548.8
2022-09-01T05:29:09.937Z,548.8
2022-09-01T05:30:11.480Z,548.7
2022-09-01T05:31:13.616Z,548.6
2022-09-01T05:32:15.363Z,548.6
2022-09-01T05:33:22.357Z,548.7
2022-09-01T05:34:23.962Z,548.6
2022-09-01T05:35:33.455Z,548.5
2022-09-01T05:36:35.070Z,548.4
2022-09-01T05:37:36.617Z,548.2
2022-09-01T05:38:38.164Z,548.3
2022-09-01T05:39:39.728Z,548.2
2022-09-01T05:40:41.824Z,548.2
2022-09-01T05:41:43.396Z,548.4
2022-09-01T05:42:44.968Z,548.7
2022-09-01T05:43:46.506Z,548.8
2022-09-01T05:44:53.157Z,549
2022-09-01T05:46:07.806Z,548.6
2022-09-01T05:47:09.410Z,548.9
2022-09-01T05:48:10.949Z,549
2022-09-01T05:49:12.492Z,549.1
2022-09-01T05:50:15.202Z,548.9
2022-09-01T05:51:51.110Z,549.2
2022-09-01T05:52:53.477Z,549
2022-09-01T05:53:55.168Z,549.2
2022-09-01T05:54:57.897Z,549.1
2022-09-01T05:55:59.449Z,549.2
2022-09-01T05:57:35.533Z,548.7
2022-09-01T05:59:26.314Z,548.8
2022-09-01T06:00:28.356Z,549
2022-09-01T06:01:30.098Z,549
2022-09-01T06:02:32.338Z,548.8
2022-09-01T06:03:38.987Z,549.1
2022-09-01T06:04:40.555Z,549.1
2022-09-01T06:05:42.092Z,549.2
2022-09-01T06:07:11.016Z,549.4
2022-09-01T06:08:16.659Z,549.5
2022-09-01T06:09:19.086Z,549.6
2022-09-01T06:10:20.645Z,549.6
2022-09-01T06:11:22.204Z,549.7
2022-09-01T06:12:24.065Z,549.5
2022-09-01T06:13:31.329Z,549.7
2022-09-01T06:14:32.962Z,549.7
2022-09-01T06:15:34.494Z,549.9
2022-09-01T06:16:36.383Z,549.9
2022-09-01T06:17:37.950Z,549.9
2022-09-01T06:18:39.536Z,550.2
2022-09-01T06:19:41.855Z,550.3
2022-09-01T06:20:43.398Z,550.2
2022-09-01T06:21:44.976Z,550.1
2022-09-01T06:22:46.510Z,549.8
2022-09-01T06:23:48.061Z,550
2022-09-01T06:25:03.339Z,549.9
2022-09-01T06:26:05.024Z,549.6
2022-09-01T06:27:06.571Z,549.8
2022-09-01T06:28:08.535Z,549.3
2022-09-01T06:29:10.104Z,549.5
2022-09-01T06:30:11.790Z,549.9
2022-09-01T06:31:13.522Z,549.7
2022-09-01T06:32:15.102Z,549.3
2022-09-01T06:33:16.901Z,549.3
2022-09-01T06:34:18.500Z,549.4
2022-09-01T06:35:20.121Z,549.1
2022-09-01T06:36:21.660Z,549.6
2022-09-01T06:37:23.880Z,549.3
2022-09-01T06:38:25.501Z,549.4
2022-09-01T06:39:27.089Z,549.7
2022-09-01T06:40:29.320Z,549.6
2022-09-01T06:41:30.977Z,549.9
2022-09-01T06:42:32.516Z,549.8
2022-09-01T06:43:34.058Z,549.9
2022-09-01T06:44:41.434Z,550.3
2022-09-01T06:45:43.034Z,550.3
2022-09-01T06:46:44.801Z,550.3
2022-09-01T06:47:46.439Z,550.3
2022-09-01T06:48:48.062Z,550.6
2022-09-01T06:49:50.556Z,550.7
2022-09-01T06:51:23.842Z,550.9
2022-09-01T06:52:26.934Z,550.6
2022-09-01T06:53:36.843Z,551
2022-09-01T06:54:38.787Z,551
2022-09-01T06:55:40.452Z,550.7
2022-09-01T06:56:54.554Z,550.8
2022-09-01T06:58:08.376Z,551
2022-09-01T06:59:10.493Z,551.1
2022-09-01T07:00:12.034Z,550.8
2022-09-01T07:01:14.771Z,550.6
2022-09-01T07:02:18.714Z,550.6
2022-09-01T07:03:22.406Z,551.1
2022-09-01T07:04:26.320Z,550.7
2022-09-01T07:06:03.003Z,550.4
2022-09-01T07:08:06.306Z,550.3
2022-09-01T07:10:22.743Z,550.4
2022-09-01T07:27:35.573Z,550.2
2022-09-01T07:28:38.202Z,551.7
2022-09-01T07:29:42.221Z,551.5
2022-09-01T07:30:43.821Z,551.8
2022-09-01T07:32:48.377Z,551.6
2022-09-01T07:34:38.476Z,551.5
2022-09-01T07:43:34.108Z,551.6
2022-09-01T07:44:35.831Z,551.9
2022-09-01T07:45:37.363Z,551.9
2022-09-01T07:46:39.732Z,551.9
2022-09-01T07:47:57.531Z,552
2022-09-01T07:50:12.183Z,552.1
2022-09-01T07:51:41.861Z,552.1
2022-09-01T07:52:43.493Z,552.2
2022-09-01T07:53:45.037Z,552
2022-09-01T07:54:46.609Z,551.9
2022-09-01T07:55:48.263Z,552
2022-09-01T07:56:49.882Z,551.9
2022-09-01T07:57:51.528Z,551.7
2022-09-01T07:58:53.071Z,552.2
2022-09-01T07:59:54.715Z,552.1
2022-09-01T08:00:56.360Z,552.3
2022-09-01T08:02:01.303Z,552.3
2022-09-01T08:03:03.557Z,552.7
2022-09-01T08:04:05.138Z,552.2
2022-09-01T08:05:06.793Z,552.4
2022-09-01T08:06:08.363Z,552.4
2022-09-01T08:07:16.579Z,552.7
2022-09-01T08:08:30.456Z,552.6
2022-09-01T08:09:44.855Z,552.3
2022-09-01T08:10:49.862Z,551.7
2022-09-01T08:12:03.740Z,551.8
2022-09-01T08:13:07.485Z,551.8
2022-09-01T08:14:11.058Z,551.6
2022-09-01T08:16:16.121Z,551.8
2022-09-01T08:17:52.542Z,552
2022-09-01T08:18:54.782Z,552.3
2022-09-01T08:19:56.800Z,552.4
2022-09-01T08:20:58.441Z,552.7
2022-09-01T08:22:00.152Z,552.6
2022-09-01T08:23:01.772Z,552.7
2022-09-01T08:24:03.361Z,552.6
2022-09-01T08:25:05.027Z,552.7
2022-09-01T08:26:06.673Z,552.7
2022-09-01T08:27:08.413Z,552.8
2022-09-01T08:28:10.148Z,553.1
2022-09-01T08:29:11.789Z,553
2022-09-01T08:30:13.518Z,553
2022-09-01T08:31:15.402Z,553.2
2022-09-01T08:32:17.014Z,553.2
2022-09-01T08:33:18.571Z,553.2
2022-09-01T08:34:20.167Z,553.5
2022-09-01T08:35:21.712Z,553.4
2022-09-01T08:36:26.690Z,553.3
2022-09-01T08:37:28.338Z,553.6
2022-09-01T08:38:29.995Z,553.4
2022-09-01T08:39:31.537Z,553.4
2022-09-01T08:40:33.992Z,553.5
2022-09-01T08:41:36.163Z,553.5
2022-09-01T08:42:37.873Z,553.8
2022-09-01T08:43:39.417Z,553.7
2022-09-01T08:44:40.945Z,554.1
2022-09-01T08:45:42.484Z,553.9
2022-09-01T08:46:44.600Z,554.4
2022-09-01T08:49:25.994Z,554.1
2022-09-01T08:50:27.882Z,554.1
2022-09-01T08:51:30.661Z,554
2022-09-01T08:52:32.213Z,553.9
2022-09-01T08:53:33.751Z,554
2022-09-01T08:54:35.315Z,554.1
2022-09-01T08:55:36.899Z,554.2
2022-09-01T08:56:38.445Z,554.2
2022-09-01T08:57:40.046Z,554.2
2022-09-01T08:58:41.743Z,554.5
2022-09-01T08:59:43.339Z,554.8
2022-09-01T09:00:55.823Z,554.9
2022-09-01T09:01:59.376Z,555
2022-09-01T09:03:01.447Z,554.8
2022-09-01T09:04:03.013Z,554.9
2022-09-01T09:05:16.622Z,555.3
2022-09-01T09:06:18.195Z,555.1
2022-09-01T09:07:19.916Z,555.8
2022-09-01T09:08:21.464Z,555.6
2022-09-01T09:09:34.640Z,555.7
2022-09-01T09:10:36.243Z,555.5
2022-09-01T09:11:38.800Z,556
2022-09-01T09:12:49.901Z,556.1
2022-09-01T09:13:51.608Z,556.1
2022-09-01T09:14:53.228Z,556.4
2022-09-01T09:16:09.475Z,556.4
2022-09-01T09:17:11.218Z,556.3
2022-09-01T09:18:54.558Z,556.1
2022-09-01T09:19:56.562Z,556.2
2022-09-01T09:20:58.096Z,556.1
2022-09-01T09:21:59.696Z,556.8
2022-09-01T09:23:01.232Z,556.7
2022-09-01T09:24:02.772Z,556.7
2022-09-01T09:25:04.374Z,556.8
2022-09-01T09:26:08.711Z,556.7
2022-09-01T09:27:13.462Z,557
2022-09-01T09:28:14.994Z,557
2022-09-01T09:29:16.566Z,556.8
2022-09-01T09:30:18.175Z,556.7
2022-09-01T09:31:20.196Z,556.6
2022-09-01T09:33:47.516Z,557
2022-09-01T09:34:53.393Z,557.1
2022-09-01T09:35:55.151Z,557.4
2022-09-01T09:36:57.829Z,556.8
2022-09-01T09:37:59.409Z,557.3
2022-09-01T09:39:01.934Z,557.2
2022-09-01T09:40:04.307Z,557
2022-09-01T09:41:27.688Z,557.3
2022-09-01T09:42:37.075Z,557.8
2022-09-01T09:43:45.308Z,557.9
2022-09-01T09:44:47.025Z,557.9
2022-09-01T09:45:49.794Z,557.7
2022-09-01T09:46:51.492Z,557.9
2022-09-01T09:47:53.089Z,558.1
2022-09-01T09:48:54.628Z,557.7
2022-09-01T09:49:56.144Z,558
2022-09-01T09:50:57.685Z,558.2
2022-09-01T09:51:59.308Z,558.1
2022-09-01T09:53:01.545Z,558.3
2022-09-01T09:54:03.077Z,558.4
2022-09-01T09:55:05.441Z,558.5
2022-09-01T09:56:07.004Z,558.6
2022-09-01T09:57:08.712Z,558.7
2022-09-01T09:58:10.496Z,558.7
2022-09-01T09:59:12.060Z,558.6
2022-09-01T10:00:13.602Z,558.5
2022-09-01T10:01:16.164Z,558.7
2022-09-01T10:02:28.490Z,558.9
2022-09-01T10:03:30.358Z,558.8
2022-09-01T10:04:32.170Z,558.5
2022-09-01T10:05:33.816Z,558.5
2022-09-01T10:06:35.424Z,558.7
2022-09-01T10:07:36.955Z,558.7
2022-09-01T10:08:38.489Z,558.6
2022-09-01T10:09:40.868Z,559
2022-09-01T10:10:42.770Z,559.2
2022-09-01T10:11:44.316Z,559.4
2022-09-01T10:12:46.429Z,559.1
2022-09-01T10:13:51.939Z,559.2
2022-09-01T10:14:54.207Z,559.5
2022-09-01T10:15:55.787Z,559.7
2022-09-01T10:16:59.004Z,559.8
2022-09-01T10:18:30.782Z,559.7
2022-09-01T10:19:36.409Z,560.2
2022-09-01T10:20:38.673Z,559.9
2022-09-01T10:21:40.202Z,560
2022-09-01T10:22:45.888Z,559.7
2022-09-01T10:23:47.545Z,559.7
2022-09-01T10:24:51.128Z,560.4
2022-09-01T10:25:52.734Z,560
2022-09-01T10:26:54.329Z,560
2022-09-01T10:27:59.576Z,559.8
2022-09-01T10:29:02.178Z,559.9
2022-09-01T10:30:21.174Z,560
2022-09-01T10:31:23.158Z,560
2022-09-01T10:32:57.021Z,560
2022-09-01T10:34:01.388Z,560.1
2022-09-01T10:35:04.448Z,560.3
2022-09-01T10:36:08.624Z,560.4
2022-09-01T10:37:16.542Z,560.7
2022-09-01T10:38:18.499Z,560.8
2022-09-01T10:39:32.827Z,561.2
2022-09-01T10:40:50.207Z,561.2
2022-09-01T10:42:01.479Z,560.9
2022-09-01T10:43:12.744Z,561
2022-09-01T10:44:14.310Z,560.8
2022-09-01T10:45:15.855Z,560.9
2022-09-01T10:46:27.640Z,560.9
2022-09-01T10:47:39.797Z,561
2022-09-01T10:49:07.452Z,561.3
2022-09-01T10:50:13.505Z,561.2
2022-09-01T10:51:21.948Z,561.4
2022-09-01T10:52:30.646Z,561.4
2022-09-01T10:53:34.438Z,561.8
2022-09-01T10:54:55.951Z,561.9
2022-09-01T10:56:23.527Z,562.2
2022-09-01T10:57:31.113Z,562.2
2022-09-01T10:59:44.389Z,562.3
2022-09-01T11:01:21.691Z,562.3
2022-09-01T11:02:47.644Z,562.6
2022-09-01T11:03:52.901Z,562.2
2022-09-01T11:04:55.359Z,562.8
2022-09-01T11:06:13.865Z,563
2022-09-01T11:07:15.613Z,563.1
2022-09-01T11:08:17.196Z,563.2
2022-09-01T11:09:18.790Z,563.6
2022-09-01T11:10:36.688Z,563.4
2022-09-01T11:11:38.381Z,563.4
2022-09-01T11:12:42.470Z,563.5
2022-09-01T11:13:50.601Z,563.7
2022-09-01T11:14:52.194Z,563.8
2022-09-01T11:15:55.398Z,563.5
2022-09-01T11:17:02.147Z,563.7
2022-09-01T11:18:03.727Z,564
2022-09-01T11:19:06.296Z,563.9
2022-09-01T11:20:08.122Z,563.9
2022-09-01T11:21:09.662Z,564.1
2022-09-01T11:22:13.564Z,564.1
2022-09-01T11:23:16.028Z,564.2
2022-09-01T11:24:17.984Z,564.3
2022-09-01T11:25:19.774Z,564.4
2022-09-01T11:26:21.488Z,564.4
2022-09-01T11:27:23.942Z,564.5
2022-09-01T11:28:26.340Z,564.8
2022-09-01T11:29:27.964Z,565.1
2022-09-01T11:30:29.664Z,565.3
2022-09-01T11:31:32.096Z,565.3
2022-09-01T11:32:33.778Z,565.2
2022-09-01T11:33:35.366Z,565.5
2022-09-01T11:34:36.997Z,565.3
2022-09-01T11:35:38.538Z,565.9
2022-09-01T11:36:40.281Z,565.6
2022-09-01T11:37:42.749Z,565.6
2022-09-01T11:38:44.296Z,565.7
2022-09-01T11:39:45.835Z,565.9
2022-09-01T11:40:48.374Z,566.1
2022-09-01T11:42:04.693Z,566.2
2022-09-01T11:43:13.164Z,566.1
2022-09-01T11:44:14.962Z,566.6
2022-09-01T11:45:22.669Z,566.4
2022-09-01T11:46:24.684Z,566.7
2022-09-01T11:47:26.434Z,566.6
2022-09-01T11:48:27.974Z,566.6
2022-09-01T11:49:29.623Z,567
2022-09-01T11:50:31.268Z,567.1
2022-09-01T11:51:33.247Z,567.4
2022-09-01T11:52:34.855Z,567.7
2022-09-01T11:53:36.447Z,567.7
2022-09-01T11:54:38.257Z,568.6
2022-09-01T11:55:39.938Z,568.5
2022-09-01T11:56:41.649Z,568.9
2022-09-01T11:57:43.295Z,569.1
2022-09-01T11:58:44.873Z,568.9
2022-09-01T11:59:49.136Z,568.9
2022-09-01T12:00:50.827Z,568.7
2022-09-01T12:01:52.886Z,568.7
2022-09-01T12:02:55.402Z,569
2022-09-01T12:03:57.096Z,568.9
2022-09-01T12:04:58.634Z,569
2022-09-01T12:06:00.242Z,569.4
2022-09-01T12:07:01.893Z,569.2
2022-09-01T12:08:03.512Z,569.5
2022-09-01T12:09:05.396Z,569.4
2022-09-01T12:10:07.042Z,569.3
2022-09-01T12:11:08.604Z,569.3
2022-09-01T12:12:10.133Z,569.4
2022-09-01T12:13:12.219Z,569.1
2022-09-01T12:14:13.863Z,569
2022-09-01T12:15:19.651Z,569.1
2022-09-01T12:16:21.221Z,569
2022-09-01T12:17:22.884Z,569
2022-09-01T12:18:24.416Z,569.3
2022-09-01T12:19:26.239Z,569.2
2022-09-01T12:20:30.458Z,569.2
2022-09-01T12:21:32.010Z,569.6
2022-09-01T12:22:33.552Z,569.4
2022-09-01T12:23:35.218Z,569.5
2022-09-01T12:24:36.916Z,569.6
2022-09-01T12:25:38.451Z,569.6
2022-09-01T12:26:39.995Z,569.7
2022-09-01T12:27:41.641Z,569.4
2022-09-01T12:28:43.245Z,569.6
2022-09-01T12:29:44.783Z,569.6
2022-09-01T12:30:46.416Z,569.8
2022-09-01T12:31:48.432Z,569.7
2022-09-01T12:33:24.528Z,569.8
2022-09-01T12:34:26.347Z,569.6
2022-09-01T12:35:27.957Z,569.9
2022-09-01T12:36:29.493Z,569.7
2022-09-01T12:37:31.115Z,570
2022-09-01T12:38:32.740Z,569.9
2022-09-01T12:39:34.717Z,570
2022-09-01T12:40:36.771Z,569.9
2022-09-01T12:41:40.213Z,570.1
2022-09-01T12:42:45.547Z,570.1
2022-09-01T12:43:56.508Z,570.3
2022-09-01T12:44:58.172Z,570.2
2022-09-01T12:46:02.547Z,570.3
2022-09-01T12:47:04.443Z,570.7
2022-09-01T12:48:05.977Z,570.4
2022-09-01T12:49:07.924Z,570.4
2022-09-01T12:50:09.533Z,570.4
2022-09-01T12:51:11.133Z,570.6
2022-09-01T12:52:16.137Z,570.5
2022-09-01T12:53:17.749Z,570.3
2022-09-01T12:54:21.757Z,570.5
2022-09-01T12:55:53.365Z,570.4
2022-09-01T12:56:54.905Z,570.2
2022-09-01T12:57:56.619Z,570.3
2022-09-01T12:58:58.256Z,570.7
2022-09-01T12:59:59.956Z,570.8
2022-09-01T13:01:02.334Z,571
2022-09-01T13:02:04.699Z,571
2022-09-01T13:03:18.694Z,571
2022-09-01T13:04:20.435Z,571.2
2022-09-01T13:05:30.804Z,571
2022-09-01T13:06:33.912Z,571.2
2022-09-01T13:07:35.604Z,571.1
2022-09-01T13:08:38.272Z,571.3
2022-09-01T13:09:39.806Z,571.2
2022-09-01T13:10:43.688Z,571.3
2022-09-01T13:12:15.337Z,571.5
2022-09-01T13:13:17.358Z,571.4
2022-09-01T13:14:19.006Z,571.4
2022-09-01T13:15:20.685Z,571.5
2022-09-01T13:16:22.524Z,571.2
2022-09-01T13:17:24.402Z,571.8
2022-09-01T13:18:26.167Z,571.7
2022-09-01T13:19:31.176Z,571.9
2022-09-01T13:20:32.717Z,571.7
2022-09-01T13:21:34.624Z,572
2022-09-01T13:22:36.411Z,572
2022-09-01T13:23:38.175Z,571.5
2022-09-01T13:24:40.325Z,572.1
2022-09-01T13:25:41.845Z,572
2022-09-01T13:27:22.924Z,572
2022-09-01T13:29:27.684Z,572
2022-09-01T13:30:29.329Z,571.3
2022-09-01T13:31:35.590Z,571.5
2022-09-01T13:33:20.821Z,571.2
2022-09-01T13:34:26.251Z,571.5
2022-09-01T13:35:29.749Z,571
2022-09-01T13:36:53.204Z,571
2022-09-01T13:37:54.877Z,571
2022-09-01T13:38:57.408Z,570.4
2022-09-01T13:39:59.057Z,570.4
2022-09-01T13:41:00.789Z,570.4
2022-09-01T13:42:02.471Z,570.1
2022-09-01T13:43:04.000Z,570.1
2022-09-01T13:44:05.723Z,570
2022-09-01T13:45:07.913Z,569.8
2022-09-01T13:46:09.933Z,570.1
2022-09-01T13:48:18.965Z,569.7
2022-09-01T13:50:12.357Z,570.5
2022-09-01T13:51:19.494Z,570.2
2022-09-01T13:52:21.047Z,570.2
2022-09-01T13:53:22.589Z,570.3
2022-09-01T13:54:24.237Z,570.5
2022-09-01T13:55:25.900Z,570.4
2022-09-01T13:56:27.426Z,570.2
2022-09-01T13:57:37.355Z,570.6
2022-09-01T13:58:38.986Z,570.4
2022-09-01T13:59:40.685Z,570.2
2022-09-01T14:00:42.506Z,570.1
2022-09-01T14:01:44.137Z,570
2022-09-01T14:02:45.676Z,569.9
2022-09-01T14:03:58.351Z,569.7
2022-09-01T14:05:01.768Z,569.7
2022-09-01T14:06:03.436Z,569.5
2022-09-01T14:07:05.169Z,569.6
2022-09-01T14:08:06.938Z,570.1
2022-09-01T14:09:08.676Z,569.9
2022-09-01T14:10:10.410Z,570.1
2022-09-01T14:11:11.959Z,570
2022-09-01T14:12:13.492Z,569.7
2022-09-01T14:13:15.170Z,569.6
2022-09-01T14:14:16.791Z,569.6
2022-09-01T14:15:27.801Z,569.8
2022-09-01T14:16:29.837Z,569.7
2022-09-01T14:17:31.427Z,569.5
2022-09-01T14:18:32.967Z,569.9
2022-09-01T14:19:34.776Z,570
2022-09-01T14:20:37.645Z,569.9
2022-09-01T14:21:39.367Z,570.1
2022-09-01T14:22:41.051Z,570.1